sensor_id;sensor_type;location;lat;lon;timestamp;temperature;humidity
59505;DHT22;45321;53.200;5.814;2023-05-02T00:00:43;12.70;73.80
59505;DHT22;45321;53.200;5.814;2023-05-02T00:03:10;12.70;73.40
59505;DHT22;45321;53.200;5.814;2023-05-02T00:05:36;12.60;73.10
59505;DHT22;45321;53.200;5.814;2023-05-02T00:08:02;12.60;73.10
59505;DHT22;45321;53.200;5.814;2023-05-02T00:10:29;12.50;72.70
59505;DHT22;45321;53.200;5.814;2023-05-02T00:12:54;12.50;72.50
59505;DHT22;45321;53.200;5.814;2023-05-02T00:15:20;12.50;72.20
59505;DHT22;45321;53.200;5.814;2023-05-02T00:17:46;12.50;72.20
59505;DHT22;45321;53.200;5.814;2023-05-02T00:20:12;12.40;72.20
59505;DHT22;45321;53.200;5.814;2023-05-02T00:22:37;12.50;71.50
59505;DHT22;45321;53.200;5.814;2023-05-02T00:25:04;12.40;71.50
59505;DHT22;45321;53.200;5.814;2023-05-02T00:27:30;12.40;71.40
59505;DHT22;45321;53.200;5.814;2023-05-02T00:29:56;12.40;71.50
59505;DHT22;45321;53.200;5.814;2023-05-02T00:32:24;12.40;71.60
59505;DHT22;45321;53.200;5.814;2023-05-02T00:34:49;12.40;71.60
59505;DHT22;45321;53.200;5.814;2023-05-02T00:37:15;12.40;71.40
59505;DHT22;45321;53.200;5.814;2023-05-02T00:39:41;12.40;71.60
59505;DHT22;45321;53.200;5.814;2023-05-02T00:42:07;12.40;71.80
59505;DHT22;45321;53.200;5.814;2023-05-02T00:44:33;12.50;72.20
59505;DHT22;45321;53.200;5.814;2023-05-02T00:47:00;12.40;73.20
59505;DHT22;45321;53.200;5.814;2023-05-02T00:49:26;12.30;74.20
59505;DHT22;45321;53.200;5.814;2023-05-02T00:51:53;12.30;74.60
59505;DHT22;45321;53.200;5.814;2023-05-02T00:54:19;12.20;74.50
59505;DHT22;45321;53.200;5.814;2023-05-02T00:56:45;12.20;74.00
59505;DHT22;45321;53.200;5.814;2023-05-02T00:59:12;12.10;74.20
59505;DHT22;45321;53.200;5.814;2023-05-02T01:07:34;11.90;74.00
59505;DHT22;45321;53.200;5.814;2023-05-02T01:10:37;11.90;73.90
59505;DHT22;45321;53.200;5.814;2023-05-02T01:13:28;11.90;73.30
59505;DHT22;45321;53.200;5.814;2023-05-02T01:15:57;11.80;73.60
59505;DHT22;45321;53.200;5.814;2023-05-02T01:18:26;11.80;73.30
59505;DHT22;45321;53.200;5.814;2023-05-02T01:21:03;11.80;73.00
59505;DHT22;45321;53.200;5.814;2023-05-02T01:23:37;11.80;72.40
59505;DHT22;45321;53.200;5.814;2023-05-02T01:29:02;11.70;72.00
59505;DHT22;45321;53.200;5.814;2023-05-02T01:31:33;11.70;72.10
59505;DHT22;45321;53.200;5.814;2023-05-02T01:34:00;11.60;71.80
59505;DHT22;45321;53.200;5.814;2023-05-02T01:36:29;11.50;71.80
59505;DHT22;45321;53.200;5.814;2023-05-02T01:38:56;11.50;71.60
59505;DHT22;45321;53.200;5.814;2023-05-02T01:41:25;11.40;71.40
59505;DHT22;45321;53.200;5.814;2023-05-02T01:43:56;11.30;71.20
59505;DHT22;45321;53.200;5.814;2023-05-02T01:46:24;11.30;71.10
59505;DHT22;45321;53.200;5.814;2023-05-02T01:48:51;11.30;70.90
59505;DHT22;45321;53.200;5.814;2023-05-02T01:51:18;11.30;71.00
59505;DHT22;45321;53.200;5.814;2023-05-02T01:53:45;11.30;70.80
59505;DHT22;45321;53.200;5.814;2023-05-02T01:56:15;11.30;71.20
59505;DHT22;45321;53.200;5.814;2023-05-02T01:58:44;11.30;71.00
59505;DHT22;45321;53.200;5.814;2023-05-02T02:01:10;11.30;70.90
59505;DHT22;45321;53.200;5.814;2023-05-02T02:03:37;11.30;71.00
59505;DHT22;45321;53.200;5.814;2023-05-02T02:06:04;11.20;70.80
59505;DHT22;45321;53.200;5.814;2023-05-02T02:08:30;11.20;70.90
59505;DHT22;45321;53.200;5.814;2023-05-02T02:10:59;11.10;70.80
59505;DHT22;45321;53.200;5.814;2023-05-02T02:13:30;11.10;70.40
59505;DHT22;45321;53.200;5.814;2023-05-02T02:15:59;11.00;70.00
59505;DHT22;45321;53.200;5.814;2023-05-02T02:18:27;10.90;69.90
59505;DHT22;45321;53.200;5.814;2023-05-02T02:20:54;10.90;69.60
59505;DHT22;45321;53.200;5.814;2023-05-02T02:23:25;10.90;69.40
59505;DHT22;45321;53.200;5.814;2023-05-02T02:25:53;10.80;69.00
59505;DHT22;45321;53.200;5.814;2023-05-02T02:28:20;10.90;68.80
59505;DHT22;45321;53.200;5.814;2023-05-02T02:30:46;10.90;68.50
59505;DHT22;45321;53.200;5.814;2023-05-02T02:33:11;10.90;68.30
59505;DHT22;45321;53.200;5.814;2023-05-02T02:35:41;10.80;68.20
59505;DHT22;45321;53.200;5.814;2023-05-02T02:38:13;10.80;68.00
59505;DHT22;45321;53.200;5.814;2023-05-02T02:40:59;10.90;68.20
59505;DHT22;45321;53.200;5.814;2023-05-02T02:43:35;10.80;68.30
59505;DHT22;45321;53.200;5.814;2023-05-02T02:49:16;10.80;68.40
59505;DHT22;45321;53.200;5.814;2023-05-02T02:51:53;10.80;69.40
59505;DHT22;45321;53.200;5.814;2023-05-02T02:54:29;10.80;69.50
59505;DHT22;45321;53.200;5.814;2023-05-02T02:57:14;10.70;69.60
59505;DHT22;45321;53.200;5.814;2023-05-02T02:59:48;10.70;69.70
59505;DHT22;45321;53.200;5.814;2023-05-02T03:02:17;10.70;69.70
59505;DHT22;45321;53.200;5.814;2023-05-02T03:04:45;10.70;69.70
59505;DHT22;45321;53.200;5.814;2023-05-02T03:07:11;10.70;69.90
59505;DHT22;45321;53.200;5.814;2023-05-02T03:09:45;10.60;69.60
59505;DHT22;45321;53.200;5.814;2023-05-02T03:12:11;10.60;69.50
59505;DHT22;45321;53.200;5.814;2023-05-02T03:14:37;10.60;69.00
59505;DHT22;45321;53.200;5.814;2023-05-02T03:17:05;10.60;68.90
59505;DHT22;45321;53.200;5.814;2023-05-02T03:19:33;10.60;68.30
59505;DHT22;45321;53.200;5.814;2023-05-02T03:22:01;10.50;67.80
59505;DHT22;45321;53.200;5.814;2023-05-02T03:24:27;10.50;67.60
59505;DHT22;45321;53.200;5.814;2023-05-02T03:26:56;10.50;67.50
59505;DHT22;45321;53.200;5.814;2023-05-02T03:29:24;10.50;67.50
59505;DHT22;45321;53.200;5.814;2023-05-02T03:31:50;10.50;67.40
59505;DHT22;45321;53.200;5.814;2023-05-02T03:34:16;10.50;67.50
59505;DHT22;45321;53.200;5.814;2023-05-02T03:36:42;10.50;67.20
59505;DHT22;45321;53.200;5.814;2023-05-02T03:39:07;10.50;67.10
59505;DHT22;45321;53.200;5.814;2023-05-02T03:41:33;10.50;66.90
59505;DHT22;45321;53.200;5.814;2023-05-02T03:43:59;10.40;66.70
59505;DHT22;45321;53.200;5.814;2023-05-02T03:46:25;10.40;66.50
59505;DHT22;45321;53.200;5.814;2023-05-02T03:48:51;10.40;66.40
59505;DHT22;45321;53.200;5.814;2023-05-02T03:51:16;10.40;66.00
59505;DHT22;45321;53.200;5.814;2023-05-02T03:53:42;10.30;65.90
59505;DHT22;45321;53.200;5.814;2023-05-02T03:56:08;10.30;66.20
59505;DHT22;45321;53.200;5.814;2023-05-02T03:58:34;10.30;66.20
59505;DHT22;45321;53.200;5.814;2023-05-02T04:01:01;10.30;65.80
59505;DHT22;45321;53.200;5.814;2023-05-02T04:03:27;10.30;65.30
59505;DHT22;45321;53.200;5.814;2023-05-02T04:05:56;10.30;65.30
59505;DHT22;45321;53.200;5.814;2023-05-02T04:08:22;10.20;65.20
59505;DHT22;45321;53.200;5.814;2023-05-02T04:10:50;10.10;64.80
59505;DHT22;45321;53.200;5.814;2023-05-02T04:13:17;10.10;64.80
59505;DHT22;45321;53.200;5.814;2023-05-02T04:15:44;10.10;64.50
59505;DHT22;45321;53.200;5.814;2023-05-02T04:18:10;10.10;64.30
59505;DHT22;45321;53.200;5.814;2023-05-02T04:20:35;10.10;63.50
59505;DHT22;45321;53.200;5.814;2023-05-02T04:23:01;10.10;63.00
59505;DHT22;45321;53.200;5.814;2023-05-02T04:25:27;10.10;62.60
59505;DHT22;45321;53.200;5.814;2023-05-02T04:27:53;10.10;62.10
59505;DHT22;45321;53.200;5.814;2023-05-02T04:30:19;10.10;61.70
59505;DHT22;45321;53.200;5.814;2023-05-02T04:32:45;10.10;61.40
59505;DHT22;45321;53.200;5.814;2023-05-02T04:35:11;10.10;60.90
59505;DHT22;45321;53.200;5.814;2023-05-02T04:37:37;10.10;59.80
59505;DHT22;45321;53.200;5.814;2023-05-02T04:40:03;10.10;59.30
59505;DHT22;45321;53.200;5.814;2023-05-02T04:42:28;10.10;59.60
59505;DHT22;45321;53.200;5.814;2023-05-02T04:44:54;10.10;59.10
59505;DHT22;45321;53.200;5.814;2023-05-02T04:47:20;10.10;59.10
59505;DHT22;45321;53.200;5.814;2023-05-02T04:49:46;10.10;58.80
59505;DHT22;45321;53.200;5.814;2023-05-02T04:52:11;10.10;58.80
59505;DHT22;45321;53.200;5.814;2023-05-02T04:54:37;10.10;58.30
59505;DHT22;45321;53.200;5.814;2023-05-02T04:57:03;10.10;57.70
59505;DHT22;45321;53.200;5.814;2023-05-02T04:59:31;10.10;58.50
59505;DHT22;45321;53.200;5.814;2023-05-02T05:01:56;10.10;57.00
59505;DHT22;45321;53.200;5.814;2023-05-02T05:04:23;10.10;57.40
59505;DHT22;45321;53.200;5.814;2023-05-02T05:06:49;10.10;57.10
59505;DHT22;45321;53.200;5.814;2023-05-02T05:09:15;10.20;56.80
59505;DHT22;45321;53.200;5.814;2023-05-02T05:11:41;10.20;56.90
59505;DHT22;45321;53.200;5.814;2023-05-02T05:14:10;10.20;56.50
59505;DHT22;45321;53.200;5.814;2023-05-02T05:16:36;10.20;56.60
59505;DHT22;45321;53.200;5.814;2023-05-02T05:19:02;10.20;56.70
59505;DHT22;45321;53.200;5.814;2023-05-02T05:21:29;10.30;56.80
59505;DHT22;45321;53.200;5.814;2023-05-02T05:23:55;10.30;57.30
59505;DHT22;45321;53.200;5.814;2023-05-02T05:26:21;10.30;56.90
59505;DHT22;45321;53.200;5.814;2023-05-02T05:28:48;10.30;57.00
59505;DHT22;45321;53.200;5.814;2023-05-02T05:31:15;10.30;57.50
59505;DHT22;45321;53.200;5.814;2023-05-02T05:33:41;10.30;57.70
59505;DHT22;45321;53.200;5.814;2023-05-02T05:36:10;10.30;57.00
59505;DHT22;45321;53.200;5.814;2023-05-02T05:38:36;10.30;56.90
59505;DHT22;45321;53.200;5.814;2023-05-02T05:41:03;10.30;56.00
59505;DHT22;45321;53.200;5.814;2023-05-02T05:43:32;10.30;55.60
59505;DHT22;45321;53.200;5.814;2023-05-02T05:45:58;10.30;55.60
59505;DHT22;45321;53.200;5.814;2023-05-02T05:48:24;10.30;55.30
59505;DHT22;45321;53.200;5.814;2023-05-02T05:50:50;10.30;55.70
59505;DHT22;45321;53.200;5.814;2023-05-02T05:53:17;10.40;55.80
59505;DHT22;45321;53.200;5.814;2023-05-02T05:55:43;10.40;55.30
59505;DHT22;45321;53.200;5.814;2023-05-02T05:58:09;10.50;55.80
59505;DHT22;45321;53.200;5.814;2023-05-02T06:00:35;10.50;56.00
59505;DHT22;45321;53.200;5.814;2023-05-02T06:03:02;10.50;56.40
59505;DHT22;45321;53.200;5.814;2023-05-02T06:05:28;10.50;56.50
59505;DHT22;45321;53.200;5.814;2023-05-02T06:07:55;10.50;55.90
59505;DHT22;45321;53.200;5.814;2023-05-02T06:10:21;10.50;55.50
59505;DHT22;45321;53.200;5.814;2023-05-02T06:12:46;10.50;55.30
59505;DHT22;45321;53.200;5.814;2023-05-02T06:15:12;10.60;54.90
59505;DHT22;45321;53.200;5.814;2023-05-02T06:17:38;10.60;54.60
59505;DHT22;45321;53.200;5.814;2023-05-02T06:20:07;10.60;53.70
59505;DHT22;45321;53.200;5.814;2023-05-02T06:22:34;10.60;53.80
59505;DHT22;45321;53.200;5.814;2023-05-02T06:25:00;10.60;53.20
59505;DHT22;45321;53.200;5.814;2023-05-02T06:27:26;10.60;53.80
59505;DHT22;45321;53.200;5.814;2023-05-02T06:29:52;10.60;52.90
59505;DHT22;45321;53.200;5.814;2023-05-02T06:32:18;10.70;52.80
59505;DHT22;45321;53.200;5.814;2023-05-02T06:34:44;10.80;52.20
59505;DHT22;45321;53.200;5.814;2023-05-02T06:37:10;10.80;52.80
59505;DHT22;45321;53.200;5.814;2023-05-02T06:39:36;10.80;54.10
59505;DHT22;45321;53.200;5.814;2023-05-02T06:42:02;10.80;55.20
59505;DHT22;45321;53.200;5.814;2023-05-02T06:44:27;10.80;55.80
59505;DHT22;45321;53.200;5.814;2023-05-02T06:46:53;10.80;56.10
59505;DHT22;45321;53.200;5.814;2023-05-02T06:49:22;10.80;56.60
59505;DHT22;45321;53.200;5.814;2023-05-02T06:51:48;10.80;56.00
59505;DHT22;45321;53.200;5.814;2023-05-02T06:54:15;10.80;55.80
59505;DHT22;45321;53.200;5.814;2023-05-02T06:56:41;10.90;56.00
59505;DHT22;45321;53.200;5.814;2023-05-02T06:59:07;10.90;56.10
59505;DHT22;45321;53.200;5.814;2023-05-02T07:01:33;11.00;56.60
59505;DHT22;45321;53.200;5.814;2023-05-02T07:04:00;11.20;56.10
59505;DHT22;45321;53.200;5.814;2023-05-02T07:06:28;11.30;56.00
59505;DHT22;45321;53.200;5.814;2023-05-02T07:08:54;11.30;55.60
59505;DHT22;45321;53.200;5.814;2023-05-02T07:11:19;11.40;55.30
59505;DHT22;45321;53.200;5.814;2023-05-02T07:13:47;11.40;55.30
59505;DHT22;45321;53.200;5.814;2023-05-02T07:16:13;11.40;54.90
59505;DHT22;45321;53.200;5.814;2023-05-02T07:18:39;11.40;55.30
59505;DHT22;45321;53.200;5.814;2023-05-02T07:21:06;11.40;55.60
59505;DHT22;45321;53.200;5.814;2023-05-02T07:23:33;11.30;56.00
59505;DHT22;45321;53.200;5.814;2023-05-02T07:25:59;11.30;55.70
59505;DHT22;45321;53.200;5.814;2023-05-02T07:28:24;11.30;55.40
59505;DHT22;45321;53.200;5.814;2023-05-02T07:30:50;11.40;55.80
59505;DHT22;45321;53.200;5.814;2023-05-02T07:33:16;11.40;55.80
59505;DHT22;45321;53.200;5.814;2023-05-02T07:35:42;11.40;55.60
59505;DHT22;45321;53.200;5.814;2023-05-02T07:38:08;11.40;54.00
59505;DHT22;45321;53.200;5.814;2023-05-02T07:40:34;11.40;54.00
59505;DHT22;45321;53.200;5.814;2023-05-02T07:43:02;11.40;53.90
59505;DHT22;45321;53.200;5.814;2023-05-02T07:45:28;11.50;53.50
59505;DHT22;45321;53.200;5.814;2023-05-02T07:47:53;11.50;53.10
59505;DHT22;45321;53.200;5.814;2023-05-02T07:50:19;11.60;52.40
59505;DHT22;45321;53.200;5.814;2023-05-02T07:52:45;11.60;52.20
59505;DHT22;45321;53.200;5.814;2023-05-02T07:55:11;11.60;50.40
59505;DHT22;45321;53.200;5.814;2023-05-02T07:57:37;11.60;49.80
59505;DHT22;45321;53.200;5.814;2023-05-02T08:00:03;11.70;50.50
59505;DHT22;45321;53.200;5.814;2023-05-02T08:02:32;11.70;49.90
59505;DHT22;45321;53.200;5.814;2023-05-02T08:04:58;11.80;50.50
59505;DHT22;45321;53.200;5.814;2023-05-02T08:07:24;11.80;49.90
59505;DHT22;45321;53.200;5.814;2023-05-02T08:09:49;11.80;50.80
59505;DHT22;45321;53.200;5.814;2023-05-02T08:12:15;11.80;50.60
59505;DHT22;45321;53.200;5.814;2023-05-02T08:14:41;11.80;50.60
59505;DHT22;45321;53.200;5.814;2023-05-02T08:17:07;11.80;50.60
59505;DHT22;45321;53.200;5.814;2023-05-02T08:19:32;11.80;50.40
59505;DHT22;45321;53.200;5.814;2023-05-02T08:21:58;11.90;49.90
59505;DHT22;45321;53.200;5.814;2023-05-02T08:24:24;11.90;49.50
59505;DHT22;45321;53.200;5.814;2023-05-02T08:26:50;11.90;49.00
59505;DHT22;45321;53.200;5.814;2023-05-02T08:29:15;12.00;48.50
59505;DHT22;45321;53.200;5.814;2023-05-02T08:31:41;12.00;48.40
59505;DHT22;45321;53.200;5.814;2023-05-02T08:34:07;12.00;48.80
59505;DHT22;45321;53.200;5.814;2023-05-02T08:36:33;12.00;48.30
59505;DHT22;45321;53.200;5.814;2023-05-02T08:39:02;12.10;48.30
59505;DHT22;45321;53.200;5.814;2023-05-02T08:41:28;12.20;48.60
59505;DHT22;45321;53.200;5.814;2023-05-02T08:43:55;12.10;48.00
59505;DHT22;45321;53.200;5.814;2023-05-02T08:46:22;12.10;48.70
59505;DHT22;45321;53.200;5.814;2023-05-02T08:48:49;12.10;48.80
59505;DHT22;45321;53.200;5.814;2023-05-02T08:51:16;12.10;48.60
59505;DHT22;45321;53.200;5.814;2023-05-02T08:53:43;12.10;48.80
59505;DHT22;45321;53.200;5.814;2023-05-02T08:56:11;12.00;49.00
59505;DHT22;45321;53.200;5.814;2023-05-02T08:58:38;12.10;49.60
59505;DHT22;45321;53.200;5.814;2023-05-02T09:01:22;12.10;49.40
59505;DHT22;45321;53.200;5.814;2023-05-02T09:03:49;12.20;49.20
59505;DHT22;45321;53.200;5.814;2023-05-02T09:06:19;12.30;49.40
59505;DHT22;45321;53.200;5.814;2023-05-02T09:08:48;12.50;48.30
59505;DHT22;45321;53.200;5.814;2023-05-02T09:11:15;12.60;48.00
59505;DHT22;45321;53.200;5.814;2023-05-02T09:13:45;12.70;47.30
59505;DHT22;45321;53.200;5.814;2023-05-02T09:16:20;12.70;47.60
59505;DHT22;45321;53.200;5.814;2023-05-02T09:21:20;12.90;47.70
59505;DHT22;45321;53.200;5.814;2023-05-02T09:23:48;13.00;47.90
59505;DHT22;45321;53.200;5.814;2023-05-02T09:26:18;13.10;47.80
59505;DHT22;45321;53.200;5.814;2023-05-02T09:28:46;13.10;47.20
59505;DHT22;45321;53.200;5.814;2023-05-02T09:31:14;13.20;47.70
59505;DHT22;45321;53.200;5.814;2023-05-02T09:33:41;13.30;47.30
59505;DHT22;45321;53.200;5.814;2023-05-02T09:36:08;13.20;46.70
59505;DHT22;45321;53.200;5.814;2023-05-02T09:38:35;13.30;47.00
59505;DHT22;45321;53.200;5.814;2023-05-02T09:41:00;13.30;46.70
59505;DHT22;45321;53.200;5.814;2023-05-02T09:43:30;13.40;46.70
59505;DHT22;45321;53.200;5.814;2023-05-02T09:46:07;13.50;45.80
59505;DHT22;45321;53.200;5.814;2023-05-02T09:48:56;13.60;45.80
59505;DHT22;45321;53.200;5.814;2023-05-02T09:51:26;13.70;45.70
59505;DHT22;45321;53.200;5.814;2023-05-02T09:53:51;13.70;45.70
59505;DHT22;45321;53.200;5.814;2023-05-02T09:56:17;13.80;45.30
59505;DHT22;45321;53.200;5.814;2023-05-02T09:58:43;13.90;46.20
59505;DHT22;45321;53.200;5.814;2023-05-02T10:01:16;14.20;46.30
59505;DHT22;45321;53.200;5.814;2023-05-02T10:03:46;14.30;44.80
59505;DHT22;45321;53.200;5.814;2023-05-02T10:06:12;14.60;45.00
59505;DHT22;45321;53.200;5.814;2023-05-02T10:08:40;14.60;44.20
59505;DHT22;45321;53.200;5.814;2023-05-02T10:11:07;14.50;44.60
59505;DHT22;45321;53.200;5.814;2023-05-02T10:13:33;14.40;44.80
59505;DHT22;45321;53.200;5.814;2023-05-02T10:16:05;14.30;45.20
59505;DHT22;45321;53.200;5.814;2023-05-02T10:19:02;14.20;45.10
59505;DHT22;45321;53.200;5.814;2023-05-02T10:21:31;14.10;45.50
59505;DHT22;45321;53.200;5.814;2023-05-02T10:23:58;14.20;45.90
59505;DHT22;45321;53.200;5.814;2023-05-02T10:26:25;14.20;45.60
59505;DHT22;45321;53.200;5.814;2023-05-02T10:28:54;14.10;45.50
59505;DHT22;45321;53.200;5.814;2023-05-02T10:31:21;14.00;45.70
59505;DHT22;45321;53.200;5.814;2023-05-02T10:33:50;14.00;46.30
59505;DHT22;45321;53.200;5.814;2023-05-02T10:36:21;14.00;47.30
59505;DHT22;45321;53.200;5.814;2023-05-02T10:38:47;13.90;47.50
59505;DHT22;45321;53.200;5.814;2023-05-02T10:41:19;13.90;48.50
59505;DHT22;45321;53.200;5.814;2023-05-02T10:43:47;13.80;48.80
59505;DHT22;45321;53.200;5.814;2023-05-02T10:46:37;13.70;49.20
59505;DHT22;45321;53.200;5.814;2023-05-02T10:49:09;13.80;49.50
59505;DHT22;45321;53.200;5.814;2023-05-02T10:51:37;14.30;49.30
59505;DHT22;45321;53.200;5.814;2023-05-02T10:54:20;14.70;48.30
59505;DHT22;45321;53.200;5.814;2023-05-02T10:57:03;14.90;46.60
59505;DHT22;45321;53.200;5.814;2023-05-02T10:59:41;15.20;46.60
59505;DHT22;45321;53.200;5.814;2023-05-02T11:05:03;15.50;45.00
59505;DHT22;45321;53.200;5.814;2023-05-02T11:07:31;15.90;45.30
59505;DHT22;45321;53.200;5.814;2023-05-02T11:12:50;16.70;43.50
59505;DHT22;45321;53.200;5.814;2023-05-02T11:18:08;16.90;42.70
59505;DHT22;45321;53.200;5.814;2023-05-02T11:20:34;16.80;41.80
59505;DHT22;45321;53.200;5.814;2023-05-02T11:25:47;16.70;42.30
59505;DHT22;45321;53.200;5.814;2023-05-02T11:31:01;16.00;43.30
59505;DHT22;45321;53.200;5.814;2023-05-02T11:33:28;15.70;43.10
59505;DHT22;45321;53.200;5.814;2023-05-02T11:35:54;15.70;44.30
59505;DHT22;45321;53.200;5.814;2023-05-02T11:38:22;15.70;45.00
59505;DHT22;45321;53.200;5.814;2023-05-02T11:40:50;15.80;44.20
59505;DHT22;45321;53.200;5.814;2023-05-02T11:43:18;16.00;44.90
59505;DHT22;45321;53.200;5.814;2023-05-02T11:45:44;16.20;44.50
59505;DHT22;45321;53.200;5.814;2023-05-02T11:48:15;16.50;43.50
59505;DHT22;45321;53.200;5.814;2023-05-02T11:50:55;16.60;43.60
59505;DHT22;45321;53.200;5.814;2023-05-02T11:53:24;16.80;42.20
59505;DHT22;45321;53.200;5.814;2023-05-02T11:55:58;16.80;41.80
59505;DHT22;45321;53.200;5.814;2023-05-02T11:58:25;16.80;41.20
59505;DHT22;45321;53.200;5.814;2023-05-02T12:00:57;17.00;41.60
59505;DHT22;45321;53.200;5.814;2023-05-02T12:03:41;17.20;41.90
59505;DHT22;45321;53.200;5.814;2023-05-02T12:06:14;17.00;41.50
59505;DHT22;45321;53.200;5.814;2023-05-02T12:08:42;16.80;41.30
59505;DHT22;45321;53.200;5.814;2023-05-02T12:11:08;16.50;42.30
59505;DHT22;45321;53.200;5.814;2023-05-02T12:13:47;16.30;43.20
59505;DHT22;45321;53.200;5.814;2023-05-02T12:16:13;16.10;43.90
59505;DHT22;45321;53.200;5.814;2023-05-02T12:18:39;15.90;44.50
59505;DHT22;45321;53.200;5.814;2023-05-02T12:21:05;15.80;44.90
59505;DHT22;45321;53.200;5.814;2023-05-02T12:23:32;15.70;45.10
59505;DHT22;45321;53.200;5.814;2023-05-02T12:25:58;15.70;44.80
59505;DHT22;45321;53.200;5.814;2023-05-02T12:28:23;15.70;44.40
59505;DHT22;45321;53.200;5.814;2023-05-02T12:30:50;15.70;42.80
59505;DHT22;45321;53.200;5.814;2023-05-02T12:33:16;15.70;43.40
59505;DHT22;45321;53.200;5.814;2023-05-02T12:35:43;15.90;43.80
59505;DHT22;45321;53.200;5.814;2023-05-02T12:38:18;16.20;42.40
59505;DHT22;45321;53.200;5.814;2023-05-02T12:40:52;16.50;42.30
59505;DHT22;45321;53.200;5.814;2023-05-02T12:43:19;16.70;41.30
59505;DHT22;45321;53.200;5.814;2023-05-02T12:45:46;16.60;41.70
59505;DHT22;45321;53.200;5.814;2023-05-02T12:48:26;16.60;41.30
59505;DHT22;45321;53.200;5.814;2023-05-02T12:50:53;16.70;40.50
59505;DHT22;45321;53.200;5.814;2023-05-02T12:53:42;16.70;39.50
59505;DHT22;45321;53.200;5.814;2023-05-02T12:56:09;16.70;39.60
59505;DHT22;45321;53.200;5.814;2023-05-02T12:58:43;16.70;39.20
59505;DHT22;45321;53.200;5.814;2023-05-02T13:01:09;16.70;40.30
59505;DHT22;45321;53.200;5.814;2023-05-02T13:03:35;16.80;40.60
59505;DHT22;45321;53.200;5.814;2023-05-02T13:06:01;17.40;39.20
59505;DHT22;45321;53.200;5.814;2023-05-02T13:08:27;18.00;39.50
59505;DHT22;45321;53.200;5.814;2023-05-02T13:10:52;18.50;37.20
59505;DHT22;45321;53.200;5.814;2023-05-02T13:13:18;19.00;39.10
59505;DHT22;45321;53.200;5.814;2023-05-02T13:15:44;19.10;38.40
59505;DHT22;45321;53.200;5.814;2023-05-02T13:18:10;18.80;38.60
59505;DHT22;45321;53.200;5.814;2023-05-02T13:20:36;18.50;38.90
59505;DHT22;45321;53.200;5.814;2023-05-02T13:23:02;18.20;39.70
59505;DHT22;45321;53.200;5.814;2023-05-02T13:25:28;17.90;41.00
59505;DHT22;45321;53.200;5.814;2023-05-02T13:27:53;17.80;40.10
59505;DHT22;45321;53.200;5.814;2023-05-02T13:30:19;17.90;39.70
59505;DHT22;45321;53.200;5.814;2023-05-02T13:32:45;17.80;39.40
59505;DHT22;45321;53.200;5.814;2023-05-02T13:35:11;17.50;39.40
59505;DHT22;45321;53.200;5.814;2023-05-02T13:37:41;17.30;40.50
59505;DHT22;45321;53.200;5.814;2023-05-02T13:40:07;17.10;40.40
59505;DHT22;45321;53.200;5.814;2023-05-02T13:42:33;16.90;41.40
59505;DHT22;45321;53.200;5.814;2023-05-02T13:44:59;16.70;41.90
59505;DHT22;45321;53.200;5.814;2023-05-02T13:47:28;16.60;42.10
59505;DHT22;45321;53.200;5.814;2023-05-02T13:49:54;16.50;41.60
59505;DHT22;45321;53.200;5.814;2023-05-02T13:52:20;16.60;41.60
59505;DHT22;45321;53.200;5.814;2023-05-02T13:54:46;16.70;41.80
59505;DHT22;45321;53.200;5.814;2023-05-02T13:57:11;17.10;41.20
59505;DHT22;45321;53.200;5.814;2023-05-02T13:59:37;17.30;40.30
59505;DHT22;45321;53.200;5.814;2023-05-02T14:02:03;17.20;41.00
59505;DHT22;45321;53.200;5.814;2023-05-02T14:04:29;16.80;41.90
59505;DHT22;45321;53.200;5.814;2023-05-02T14:06:55;16.70;42.80
59505;DHT22;45321;53.200;5.814;2023-05-02T14:09:20;16.50;43.50
59505;DHT22;45321;53.200;5.814;2023-05-02T14:11:46;16.20;43.60
59505;DHT22;45321;53.200;5.814;2023-05-02T14:14:13;16.10;44.00
59505;DHT22;45321;53.200;5.814;2023-05-02T14:16:39;15.90;44.40
59505;DHT22;45321;53.200;5.814;2023-05-02T14:19:04;15.90;44.50
59505;DHT22;45321;53.200;5.814;2023-05-02T14:21:30;15.80;44.40
59505;DHT22;45321;53.200;5.814;2023-05-02T14:23:56;15.90;45.50
59505;DHT22;45321;53.200;5.814;2023-05-02T14:26:22;16.20;44.80
59505;DHT22;45321;53.200;5.814;2023-05-02T14:28:48;16.80;44.20
59505;DHT22;45321;53.200;5.814;2023-05-02T14:31:14;17.50;42.20
59505;DHT22;45321;53.200;5.814;2023-05-02T14:33:39;17.80;40.00
59505;DHT22;45321;53.200;5.814;2023-05-02T14:36:05;17.70;39.70
59505;DHT22;45321;53.200;5.814;2023-05-02T14:38:31;17.50;39.90
59505;DHT22;45321;53.200;5.814;2023-05-02T14:40:57;17.70;40.80
59505;DHT22;45321;53.200;5.814;2023-05-02T14:43:23;18.00;39.50
59505;DHT22;45321;53.200;5.814;2023-05-02T14:45:48;18.00;39.60
59505;DHT22;45321;53.200;5.814;2023-05-02T14:48:14;17.80;39.20
59505;DHT22;45321;53.200;5.814;2023-05-02T14:50:42;17.60;39.30
59505;DHT22;45321;53.200;5.814;2023-05-02T14:53:08;17.70;39.40
59505;DHT22;45321;53.200;5.814;2023-05-02T14:55:40;18.00;39.00
59505;DHT22;45321;53.200;5.814;2023-05-02T14:58:07;18.30;38.00
59505;DHT22;45321;53.200;5.814;2023-05-02T15:00:36;18.90;37.40
59505;DHT22;45321;53.200;5.814;2023-05-02T15:03:06;18.70;35.80
59505;DHT22;45321;53.200;5.814;2023-05-02T15:05:32;18.20;36.80
59505;DHT22;45321;53.200;5.814;2023-05-02T15:07:58;17.90;37.90
59505;DHT22;45321;53.200;5.814;2023-05-02T15:10:26;18.20;38.20
59505;DHT22;45321;53.200;5.814;2023-05-02T15:12:52;18.30;38.10
59505;DHT22;45321;53.200;5.814;2023-05-02T15:15:19;18.20;38.00
59505;DHT22;45321;53.200;5.814;2023-05-02T15:17:49;17.80;38.60
59505;DHT22;45321;53.200;5.814;2023-05-02T15:20:15;17.40;39.00
59505;DHT22;45321;53.200;5.814;2023-05-02T15:22:41;17.10;39.40
59505;DHT22;45321;53.200;5.814;2023-05-02T15:25:07;16.90;40.40
59505;DHT22;45321;53.200;5.814;2023-05-02T15:27:33;16.80;41.10
59505;DHT22;45321;53.200;5.814;2023-05-02T15:29:59;16.80;41.80
59505;DHT22;45321;53.200;5.814;2023-05-02T15:32:24;16.70;42.40
59505;DHT22;45321;53.200;5.814;2023-05-02T15:34:50;16.50;42.60
59505;DHT22;45321;53.200;5.814;2023-05-02T15:37:16;16.40;43.20
59505;DHT22;45321;53.200;5.814;2023-05-02T15:39:42;16.60;42.80
59505;DHT22;45321;53.200;5.814;2023-05-02T15:42:07;16.60;42.80
59505;DHT22;45321;53.200;5.814;2023-05-02T15:44:34;16.40;43.00
59505;DHT22;45321;53.200;5.814;2023-05-02T15:47:01;16.30;43.20
59505;DHT22;45321;53.200;5.814;2023-05-02T15:49:26;16.60;43.70
59505;DHT22;45321;53.200;5.814;2023-05-02T15:51:56;17.00;42.90
59505;DHT22;45321;53.200;5.814;2023-05-02T15:54:22;17.70;41.90
59505;DHT22;45321;53.200;5.814;2023-05-02T15:56:48;18.20;41.90
59505;DHT22;45321;53.200;5.814;2023-05-02T15:59:14;18.70;40.70
59505;DHT22;45321;53.200;5.814;2023-05-02T16:01:39;19.00;39.40